createdAt,value
2018-08-27T00:00:39.051Z,87.38
2018-08-27T00:02:00.068Z,87.76
2018-08-27T00:02:39.051Z,87.33
2018-08-27T00:03:39.023Z,85.99
2018-08-27T00:04:39.033Z,85.89
2018-08-27T00:05:39.029Z,86.28
2018-08-27T00:06:39.044Z,86.47
2018-08-27T00:07:59.912Z,85.61
2018-08-27T00:08:39.008Z,85.32
2018-08-27T00:09:39.018Z,85.03
2018-08-27T00:10:38.999Z,85.61
2018-08-27T00:11:38.963Z,85.41
2018-08-27T00:12:38.963Z,85.32
2018-08-27T00:13:59.955Z,85.13
2018-08-27T00:14:38.941Z,83.79
2018-08-27T00:15:38.934Z,84.46
2018-08-27T00:16:38.972Z,85.71
2018-08-27T00:17:38.952Z,85.03
2018-08-27T00:18:38.928Z,84.55
2018-08-27T00:19:59.944Z,84.36
2018-08-27T00:20:38.905Z,82.93
2018-08-27T00:21:38.969Z,83.06
2018-08-27T00:22:38.947Z,83.22
2018-08-27T00:23:38.914Z,83.69
2018-08-27T00:24:38.914Z,83.73
2018-08-27T00:25:59.924Z,83.06
2018-08-27T00:26:38.871Z,82.87
2018-08-27T00:27:38.802Z,82.30
2018-08-27T00:28:38.893Z,82.97
2018-08-27T00:29:38.867Z,83.31
2018-08-27T00:30:38.849Z,83.22
2018-08-27T00:31:59.867Z,83.73
2018-08-27T00:32:38.840Z,83.79
2018-08-27T00:33:38.831Z,83.98
2018-08-27T00:34:38.807Z,83.73
2018-08-27T00:35:38.851Z,83.60
2018-08-27T00:36:38.823Z,83.79
2018-08-27T00:37:59.837Z,84.41
2018-08-27T00:38:38.829Z,84.46
2018-08-27T00:39:38.818Z,84.75
2018-08-27T00:40:38.821Z,84.41
2018-08-27T00:41:38.788Z,84.27
2018-08-27T00:42:38.801Z,83.79
2018-08-27T00:43:59.809Z,84.41
2018-08-27T00:44:38.799Z,84.84
2018-08-27T00:45:38.794Z,85.65
2018-08-27T00:46:38.786Z,86.22
2018-08-27T00:47:38.737Z,85.99
2018-08-27T00:48:57.094Z,86.22
2018-08-27T00:49:59.740Z,85.89
2018-08-27T00:50:38.723Z,85.71
2018-08-27T00:51:38.720Z,86.08
2018-08-27T00:52:38.744Z,85.99
2018-08-27T00:53:38.703Z,85.71
2018-08-27T00:54:38.706Z,85.51
2018-08-27T00:55:59.737Z,85.41
2018-08-27T00:56:38.699Z,85.71
2018-08-27T00:57:38.707Z,84.84
2018-08-27T00:58:38.682Z,85.03
2018-08-27T00:59:38.681Z,84.94
2018-08-27T01:00:38.672Z,85.22
2018-08-27T01:01:59.688Z,84.84
2018-08-27T01:02:38.665Z,84.88
2018-08-27T01:03:38.629Z,84.46
2018-08-27T01:04:38.636Z,84.69
2018-08-27T01:05:38.648Z,84.41
2018-08-27T01:06:38.632Z,83.83
2018-08-27T01:07:59.663Z,84.36
2018-08-27T01:08:38.641Z,84.27
2018-08-27T01:09:38.647Z,84.50
2018-08-27T01:10:38.620Z,83.93
2018-08-27T01:11:38.596Z,83.83
2018-08-27T01:12:38.608Z,83.64
2018-08-27T01:13:59.587Z,83.93
2018-08-27T01:14:38.591Z,84.22
2018-08-27T01:15:38.559Z,83.64
2018-08-27T01:16:38.565Z,84.41
2018-08-27T01:17:38.546Z,83.93
2018-08-27T01:18:38.571Z,84.02
2018-08-27T01:19:59.574Z,84.12
2018-08-27T01:20:38.546Z,83.73
2018-08-27T01:21:38.554Z,83.83
2018-08-27T01:22:38.615Z,83.73
2018-08-27T01:23:38.494Z,83.73
2018-08-27T01:24:38.524Z,83.54
2018-08-27T01:25:59.477Z,83.45
2018-08-27T01:26:38.514Z,83.93
2018-08-27T01:27:38.500Z,83.54
2018-08-27T01:28:38.460Z,83.64
2018-08-27T01:29:38.490Z,83.64
2018-08-27T01:30:38.492Z,83.36
2018-08-27T01:31:59.482Z,83.83
2018-08-27T01:32:38.394Z,83.26
2018-08-27T01:33:38.466Z,83.54
2018-08-27T01:34:38.485Z,83.73
2018-08-27T01:35:38.460Z,83.93
2018-08-27T01:36:38.436Z,83.73
2018-08-27T01:37:59.436Z,83.54
2018-08-27T01:38:38.435Z,83.54
2018-08-27T01:39:39.002Z,83.54
2018-08-27T01:40:38.419Z,83.73
2018-08-27T01:41:38.434Z,83.83
2018-08-27T01:42:38.420Z,84.59
2018-08-27T01:43:59.430Z,83.93
2018-08-27T01:44:38.406Z,83.64
2018-08-27T01:45:38.393Z,83.93
2018-08-27T01:46:38.362Z,83.78
2018-08-27T01:47:38.396Z,84.02
2018-08-27T01:48:38.376Z,84.12
2018-08-27T01:49:59.397Z,83.78
2018-08-27T01:50:38.377Z,84.35
2018-08-27T01:51:38.367Z,84.12
2018-08-27T01:52:38.358Z,84.26
2018-08-27T01:53:38.299Z,83.93
2018-08-27T01:54:38.356Z,83.97
2018-08-27T01:55:59.357Z,84.31
2018-08-27T01:56:38.340Z,84.45
2018-08-27T01:57:38.335Z,84.31
2018-08-27T01:58:38.330Z,84.26
2018-08-27T01:59:38.340Z,84.16
2018-08-27T02:00:38.299Z,84.06
2018-08-27T02:01:59.233Z,85.21
2018-08-27T02:02:38.329Z,84.74
2018-08-27T02:03:38.303Z,85.02
2018-08-27T02:04:38.301Z,85.12
2018-08-27T02:05:38.273Z,84.92
2018-08-27T02:06:38.275Z,84.92
2018-08-27T02:07:59.275Z,84.26
2018-08-27T02:08:38.235Z,85.12
2018-08-27T02:09:38.252Z,84.92
2018-08-27T02:10:38.261Z,84.74
2018-08-27T02:11:38.257Z,84.92
2018-08-27T02:12:38.243Z,85.31
2018-08-27T02:13:59.233Z,85.31
2018-08-27T02:14:38.251Z,85.31
2018-08-27T02:15:38.238Z,85.69
2018-08-27T02:16:38.915Z,85.41
2018-08-27T02:17:38.223Z,86.17
2018-08-27T02:18:38.197Z,86.08
2018-08-27T02:19:59.209Z,86.17
2018-08-27T02:20:38.207Z,86.46
2018-08-27T02:21:38.218Z,85.88
2018-08-27T02:22:38.117Z,85.88
2018-08-27T02:23:38.189Z,86.17
2018-08-27T02:24:38.180Z,86.36
2018-08-27T02:25:59.182Z,86.17
2018-08-27T02:26:38.171Z,86.36
2018-08-27T02:27:38.154Z,86.55
2018-08-27T02:28:38.140Z,86.17
2018-08-27T02:29:38.090Z,86.17
2018-08-27T02:30:38.081Z,85.98
2018-08-27T02:31:59.163Z,86.17
2018-08-27T02:32:38.096Z,86.74
2018-08-27T02:33:38.116Z,86.94
2018-08-27T02:34:38.103Z,86.27
2018-08-27T02:35:38.111Z,86.17
2018-08-27T02:36:38.110Z,86.84
2018-08-27T02:37:59.113Z,86.65
2018-08-27T02:38:38.055Z,87.13
2018-08-27T02:39:38.107Z,87.51
2018-08-27T02:40:38.074Z,87.13
2018-08-27T02:41:38.095Z,87.70
2018-08-27T02:42:38.069Z,87.70
2018-08-27T02:43:59.073Z,87.70
2018-08-27T02:44:38.031Z,88.18
2018-08-27T02:45:38.046Z,88.09
2018-08-27T02:46:38.044Z,88.18
2018-08-27T02:47:38.062Z,88.47
2018-08-27T02:48:38.030Z,88.18
2018-08-27T02:49:59.023Z,88.47
2018-08-27T02:50:38.014Z,88.28
2018-08-27T02:51:37.968Z,88.95
2018-08-27T02:52:37.996Z,89.23
2018-08-27T02:53:38.026Z,90.39
2018-08-27T02:54:38.003Z,90.19
2018-08-27T02:55:59.002Z,90.63
2018-08-27T02:56:37.990Z,90.82
2018-08-27T02:57:37.975Z,91.97
2018-08-27T02:58:37.958Z,92.16
2018-08-27T02:59:37.939Z,93.40
2018-08-27T03:00:37.884Z,94.26
2018-08-27T03:01:58.948Z,95.46
2018-08-27T03:02:37.966Z,96.32
2018-08-27T03:03:37.954Z,96.03
2018-08-27T03:04:37.951Z,95.17
2018-08-27T03:05:37.876Z,92.59
2018-08-27T03:06:38.931Z,90.67
2018-08-27T03:07:58.921Z,88.29
2018-08-27T03:08:37.951Z,85.57
2018-08-27T03:09:37.899Z,84.32
2018-08-27T03:10:37.901Z,81.07
2018-08-27T03:11:37.885Z,79.54
2018-08-27T03:12:37.886Z,77.44
2018-08-27T03:13:59.283Z,75.81
2018-08-27T03:14:38.681Z,73.80
2018-08-27T03:15:37.911Z,74.63
2018-08-27T03:16:37.846Z,74.19
2018-08-27T03:17:37.861Z,73.96
2018-08-27T03:18:37.830Z,74.24
2018-08-27T03:19:58.839Z,75.20
2018-08-27T03:20:37.821Z,75.39
2018-08-27T03:21:37.834Z,74.73
2018-08-27T03:22:37.860Z,75.78
2018-08-27T03:23:37.814Z,76.35
2018-08-27T03:24:37.806Z,75.39
2018-08-27T03:25:58.802Z,76.64
2018-08-27T03:26:37.789Z,77.11
2018-08-27T03:27:37.807Z,76.48
2018-08-27T03:28:37.748Z,77.97
2018-08-27T03:29:37.725Z,77.63
2018-08-27T03:30:37.797Z,77.30
2018-08-27T03:31:58.767Z,78.11
2018-08-27T03:32:37.765Z,78.39
2018-08-27T03:33:37.740Z,79.54
2018-08-27T03:34:37.726Z,79.06
2018-08-27T03:35:37.745Z,79.06
2018-08-27T03:36:37.751Z,79.93
2018-08-27T03:37:58.755Z,81.26
2018-08-27T03:38:37.719Z,81.16
2018-08-27T03:39:37.727Z,80.69
2018-08-27T03:40:37.717Z,81.26
2018-08-27T03:41:37.646Z,82.41
2018-08-27T03:42:37.696Z,82.41
2018-08-27T03:43:58.697Z,82.31
2018-08-27T03:44:37.693Z,82.79
2018-08-27T03:45:37.686Z,83.17
2018-08-27T03:46:37.674Z,83.08
2018-08-27T03:47:37.661Z,84.03
2018-08-27T03:48:37.713Z,84.13
2018-08-27T03:49:58.673Z,83.84
2018-08-27T03:50:37.648Z,84.32
2018-08-27T03:51:37.654Z,84.80
2018-08-27T03:52:37.641Z,84.42
2018-08-27T03:53:37.631Z,84.61
2018-08-27T03:54:37.621Z,84.42
2018-08-27T03:55:58.575Z,85.38
2018-08-27T03:56:37.624Z,85.18
2018-08-27T03:57:37.603Z,85.28
2018-08-27T03:58:37.626Z,84.52
2018-08-27T03:59:37.591Z,84.70
2018-08-27T04:00:37.594Z,85.38
2018-08-27T04:01:58.574Z,85.47
2018-08-27T04:02:37.558Z,86.23
2018-08-27T04:03:37.576Z,85.47
2018-08-27T04:04:37.506Z,86.14
2018-08-27T04:05:37.540Z,85.18
2018-08-27T04:06:37.550Z,86.14
2018-08-27T04:07:58.548Z,86.14
2018-08-27T04:08:37.534Z,85.94
2018-08-27T04:09:37.525Z,85.94
2018-08-27T04:10:37.494Z,86.14
2018-08-27T04:11:37.521Z,86.04
2018-08-27T04:12:37.519Z,85.85
2018-08-27T04:13:58.492Z,85.75
2018-08-27T04:14:37.485Z,86.04
2018-08-27T04:15:37.507Z,86.04
2018-08-27T04:16:37.482Z,85.85
2018-08-27T04:17:37.477Z,86.04
2018-08-27T04:18:37.452Z,86.52
2018-08-27T04:19:58.488Z,86.71
2018-08-27T04:20:37.428Z,86.52
2018-08-27T04:21:37.466Z,86.43
2018-08-27T04:22:37.441Z,87.19
2018-08-27T04:23:37.441Z,86.90
2018-08-27T04:24:37.394Z,87.38
2018-08-27T04:25:58.408Z,86.90
2018-08-27T04:26:37.439Z,87.00
2018-08-27T04:27:37.408Z,87.19
2018-08-27T04:28:37.417Z,86.80
2018-08-27T04:29:37.406Z,86.71
2018-08-27T04:30:37.406Z,87.19
2018-08-27T04:31:58.370Z,86.61
2018-08-27T04:32:37.393Z,86.43
2018-08-27T04:33:37.379Z,86.33
2018-08-27T04:34:37.380Z,85.18
2018-08-27T04:35:37.372Z,84.70
2018-08-27T04:36:37.372Z,82.03
2018-08-27T04:37:58.359Z,81.36
2018-08-27T04:38:37.319Z,80.21
2018-08-27T04:39:37.361Z,78.30
2018-08-27T04:40:37.341Z,77.92
2018-08-27T04:41:37.326Z,74.57
2018-08-27T04:42:37.358Z,70.90
2018-08-27T04:43:58.335Z,66.83
2018-08-27T04:44:37.311Z,65.64
2018-08-27T04:45:37.303Z,63.26
2018-08-27T04:46:37.281Z,60.10
2018-08-27T04:47:37.302Z,57.04
2018-08-27T04:48:37.348Z,55.23
2018-08-27T04:49:58.278Z,53.03
2018-08-27T04:50:37.336Z,51.41
2018-08-27T04:51:37.266Z,49.88
2018-08-27T04:52:37.274Z,47.01
2018-08-27T04:53:37.226Z,45.39
2018-08-27T04:54:37.223Z,44.24
2018-08-27T04:55:58.258Z,42.33
2018-08-27T04:56:37.244Z,41.18
2018-08-27T04:57:37.239Z,39.65
2018-08-27T04:58:37.228Z,38.70
2018-08-27T04:59:37.217Z,37.34
2018-08-27T05:00:37.230Z,36.31
2018-08-27T05:01:58.217Z,35.24
2018-08-27T05:02:37.209Z,34.57
2018-08-27T05:03:37.179Z,34.09
2018-08-27T05:04:37.189Z,33.23
2018-08-27T05:05:37.227Z,32.47
2018-08-27T05:06:37.153Z,31.51
2018-08-27T05:07:58.174Z,31.61
2018-08-27T05:08:37.169Z,31.04
2018-08-27T05:09:37.155Z,30.46
2018-08-27T05:10:37.169Z,29.61
2018-08-27T05:11:37.169Z,29.32
2018-08-27T05:12:37.183Z,29.03
2018-08-27T05:13:58.116Z,28.36
2018-08-27T05:14:37.079Z,27.98
2018-08-27T05:15:37.125Z,27.41
2018-08-27T05:16:37.107Z,27.60
2018-08-27T05:17:37.093Z,26.93
2018-08-27T05:18:37.110Z,26.35
2018-08-27T05:19:58.072Z,25.98
2018-08-27T05:20:37.883Z,25.12
2018-08-27T05:21:37.007Z,24.83
2018-08-27T05:22:37.115Z,24.54
2018-08-27T05:23:37.059Z,24.07
2018-08-27T05:24:37.059Z,23.68
2018-08-27T05:25:58.057Z,23.49
2018-08-27T05:26:37.029Z,23.49
2018-08-27T05:27:37.048Z,22.73
2018-08-27T05:28:37.911Z,22.63
2018-08-27T05:29:37.027Z,21.97
2018-08-27T05:30:37.033Z,21.97
2018-08-27T05:31:58.012Z,21.77
2018-08-27T05:32:37.716Z,21.01
2018-08-27T05:33:36.970Z,20.82
2018-08-27T05:34:36.961Z,20.53
2018-08-27T05:35:36.984Z,20.25
2018-08-27T05:36:36.977Z,20.15
2018-08-27T05:37:57.990Z,20.43
2018-08-27T05:38:36.968Z,20.15
2018-08-27T05:39:36.963Z,19.38
2018-08-27T05:40:36.947Z,19.48
2018-08-27T05:41:36.922Z,19.20
2018-08-27T05:42:36.920Z,19.01
2018-08-27T05:43:57.927Z,19.20
2018-08-27T05:44:37.012Z,19.10
2018-08-27T05:45:36.909Z,19.01
2018-08-27T05:46:36.936Z,18.62
2018-08-27T05:47:36.995Z,18.15
2018-08-27T05:48:36.915Z,18.24
2018-08-27T05:49:57.881Z,18.33
2018-08-27T05:50:36.868Z,17.95
2018-08-27T05:51:36.934Z,17.77
2018-08-27T05:52:36.875Z,17.76
2018-08-27T05:53:36.873Z,17.68
2018-08-27T05:54:36.980Z,17.66
2018-08-27T05:55:57.847Z,17.47
2018-08-27T05:56:36.828Z,17.29
2018-08-27T05:57:36.845Z,17.29
2018-08-27T05:58:36.825Z,17.29
2018-08-27T05:59:36.846Z,17.10
2018-08-27T06:00:36.827Z,16.52
2018-08-27T06:01:57.845Z,16.71
2018-08-27T06:02:36.882Z,16.52
2018-08-27T06:03:37.374Z,16.42
2018-08-27T06:04:37.757Z,16.24
2018-08-27T06:05:37.728Z,16.42
2018-08-27T06:06:36.817Z,15.95
2018-08-27T06:07:57.772Z,16.04
2018-08-27T06:08:36.919Z,16.24
2018-08-27T06:09:36.761Z,15.75
2018-08-27T06:10:36.834Z,15.28
2018-08-27T06:11:36.766Z,15.37
2018-08-27T06:12:37.235Z,15.47
2018-08-27T06:13:58.453Z,15.47
2018-08-27T06:14:38.412Z,15.56
2018-08-27T06:15:36.995Z,15.47
2018-08-27T06:16:36.747Z,15.37
2018-08-27T06:17:36.744Z,15.19
2018-08-27T06:18:36.992Z,15.29
2018-08-27T06:19:57.720Z,15.29
2018-08-27T06:20:36.832Z,15.38
2018-08-27T06:21:36.706Z,14.81
2018-08-27T06:22:36.679Z,15.00
2018-08-27T06:23:36.679Z,15.09
2018-08-27T06:24:36.667Z,15.19
2018-08-27T06:25:57.652Z,15.09
2018-08-27T06:26:36.695Z,14.90
2018-08-27T06:27:36.641Z,14.81
2018-08-27T06:28:36.613Z,15.09
2018-08-27T06:29:36.656Z,14.72
2018-08-27T06:30:36.637Z,14.90
2018-08-27T06:31:57.638Z,14.90
2018-08-27T06:32:36.634Z,14.90
2018-08-27T06:33:36.608Z,14.72
2018-08-27T06:34:36.604Z,14.33
2018-08-27T06:35:36.552Z,14.62
2018-08-27T06:36:36.588Z,14.62
2018-08-27T06:37:57.645Z,14.72
2018-08-27T06:38:36.594Z,14.52
2018-08-27T06:39:36.566Z,14.14
2018-08-27T06:40:36.555Z,14.72
2018-08-27T06:41:36.527Z,14.43
2018-08-27T06:42:36.490Z,14.52
2018-08-27T06:43:57.573Z,14.43
2018-08-27T06:44:37.943Z,14.23
2018-08-27T06:45:37.363Z,14.33
2018-08-27T06:46:36.551Z,14.04
2018-08-27T06:47:36.562Z,14.04
2018-08-27T06:48:36.520Z,14.23
2018-08-27T06:49:57.484Z,14.14
2018-08-27T06:50:36.507Z,14.14
2018-08-27T06:51:36.513Z,14.23
2018-08-27T06:52:36.658Z,13.95
2018-08-27T06:53:36.496Z,14.04
2018-08-27T06:54:36.542Z,14.14
2018-08-27T06:55:57.543Z,13.95
2018-08-27T06:56:36.460Z,13.47
2018-08-27T06:57:36.465Z,13.37
2018-08-27T06:58:36.447Z,13.47
2018-08-27T06:59:36.444Z,13.47
2018-08-27T07:00:36.457Z,13.76
2018-08-27T07:01:57.442Z,13.76
2018-08-27T07:02:36.438Z,13.57
2018-08-27T07:03:36.365Z,13.47
2018-08-27T07:04:36.428Z,13.66
2018-08-27T07:05:37.102Z,13.57
2018-08-27T07:06:36.397Z,13.57
2018-08-27T07:07:57.409Z,13.57
2018-08-27T07:08:36.411Z,13.37
2018-08-27T07:09:36.444Z,13.28
2018-08-27T07:10:36.417Z,13.47
2018-08-27T07:11:36.396Z,13.57
2018-08-27T07:12:36.354Z,13.37
2018-08-27T07:13:57.407Z,13.28
2018-08-27T07:14:36.365Z,13.18
2018-08-27T07:15:37.288Z,12.81
2018-08-27T07:16:36.419Z,12.81
2018-08-27T07:17:36.337Z,12.81
2018-08-27T07:18:36.329Z,13.00
2018-08-27T07:19:57.321Z,12.90
2018-08-27T07:20:36.321Z,12.90
2018-08-27T07:21:36.319Z,13.00
2018-08-27T07:22:36.307Z,13.00
2018-08-27T07:23:36.295Z,13.09
2018-08-27T07:24:36.306Z,12.81
2018-08-27T07:25:57.300Z,12.71
2018-08-27T07:26:36.255Z,12.62
2018-08-27T07:27:36.400Z,12.90
2018-08-27T07:28:36.335Z,13.00
2018-08-27T07:29:36.266Z,12.90
2018-08-27T07:30:36.247Z,12.62
2018-08-27T07:31:57.253Z,12.24
2018-08-27T07:32:36.246Z,12.14
2018-08-27T07:33:36.239Z,12.33
2018-08-27T07:34:36.234Z,12.14
2018-08-27T07:35:36.316Z,12.33
2018-08-27T07:36:36.279Z,12.04
2018-08-27T07:37:57.211Z,12.14
2018-08-27T07:38:36.220Z,12.43
2018-08-27T07:39:36.235Z,12.14
2018-08-27T07:40:36.206Z,12.14
2018-08-27T07:41:36.151Z,12.04
2018-08-27T07:42:36.204Z,12.24
2018-08-27T07:43:57.888Z,12.24
2018-08-27T07:44:36.184Z,12.05
2018-08-27T07:45:36.184Z,12.33
2018-08-27T07:46:36.168Z,12.62
2018-08-27T07:47:36.167Z,12.34
2018-08-27T07:48:36.174Z,12.15
2018-08-27T07:49:57.158Z,12.43
2018-08-27T07:50:36.191Z,12.24
2018-08-27T07:51:36.139Z,12.15
2018-08-27T07:52:36.148Z,12.24
2018-08-27T07:53:36.081Z,12.34
2018-08-27T07:54:36.128Z,12.24
2018-08-27T07:55:57.119Z,12.24
2018-08-27T07:56:36.134Z,12.34
2018-08-27T07:57:36.104Z,12.24
2018-08-27T07:58:36.156Z,12.34
2018-08-27T07:59:36.109Z,12.24
2018-08-27T08:00:36.080Z,12.62
2018-08-27T08:01:57.086Z,12.44
2018-08-27T08:02:36.072Z,12.82
2018-08-27T08:03:36.056Z,13.10
2018-08-27T08:04:36.080Z,13.48
2018-08-27T08:05:36.038Z,13.68
2018-08-27T08:06:36.076Z,13.78
2018-08-27T08:07:57.025Z,13.77
2018-08-27T08:08:36.034Z,13.59
2018-08-27T08:09:36.022Z,13.78
2018-08-27T08:10:36.088Z,13.87
2018-08-27T08:11:36.025Z,13.40
2018-08-27T08:12:36.057Z,14.06
2018-08-27T08:13:57.041Z,14.16
2018-08-27T08:14:36.057Z,14.45
2018-08-27T08:15:36.015Z,14.45
2018-08-27T08:16:35.996Z,14.26
2018-08-27T08:17:36.017Z,14.45
2018-08-27T08:18:35.972Z,14.35
2018-08-27T08:19:56.985Z,14.45
2018-08-27T08:20:36.385Z,15.41
2018-08-27T08:21:35.969Z,14.93
2018-08-27T08:22:36.504Z,15.02
2018-08-27T08:23:35.902Z,15.31
2018-08-27T08:24:35.956Z,15.59
2018-08-27T08:25:56.958Z,15.12
2018-08-27T08:26:35.941Z,15.41
2018-08-27T08:27:37.359Z,15.41
2018-08-27T08:28:35.945Z,15.22
2018-08-27T08:29:36.041Z,15.31
2018-08-27T08:30:35.946Z,15.80
2018-08-27T08:31:56.908Z,15.32
2018-08-27T08:32:35.912Z,15.41
2018-08-27T08:33:35.961Z,15.51
2018-08-27T08:34:36.590Z,15.80
2018-08-27T08:35:35.913Z,15.32
2018-08-27T08:36:35.890Z,15.99
2018-08-27T08:37:59.492Z,15.70
2018-08-27T08:38:35.889Z,15.89
2018-08-27T08:39:35.880Z,16.47
2018-08-27T08:40:35.873Z,16.56
2018-08-27T08:41:35.864Z,17.04
2018-08-27T08:42:35.866Z,16.96
2018-08-27T08:43:57.559Z,17.14
2018-08-27T08:44:35.823Z,17.82
2018-08-27T08:45:35.839Z,18.10
2018-08-27T08:46:35.915Z,18.10
2018-08-27T08:47:35.844Z,20.69
2018-08-27T08:48:35.843Z,20.88
2018-08-27T08:49:56.824Z,20.59
2018-08-27T08:50:37.574Z,21.45
2018-08-27T08:51:36.760Z,22.41
2018-08-27T08:52:35.782Z,22.51
2018-08-27T08:53:35.838Z,23.18
2018-08-27T08:54:35.798Z,23.08
2018-08-27T08:55:56.819Z,23.47
2018-08-27T08:56:35.816Z,23.08
2018-08-27T08:57:35.802Z,23.85
2018-08-27T08:58:35.814Z,23.75
2018-08-27T08:59:35.773Z,23.75
2018-08-27T09:00:35.762Z,25.10
2018-08-27T09:01:56.794Z,23.94
2018-08-27T09:02:35.811Z,25.77
2018-08-27T09:03:35.762Z,25.10
2018-08-27T09:04:35.757Z,26.53
2018-08-27T09:05:36.725Z,25.86
2018-08-27T09:06:35.736Z,25.86
2018-08-27T09:07:56.748Z,25.38
2018-08-27T09:08:35.823Z,26.34
2018-08-27T09:09:35.710Z,26.06
2018-08-27T09:10:35.727Z,27.12
2018-08-27T09:11:35.742Z,27.89
2018-08-27T09:12:35.663Z,25.78
2018-08-27T09:13:56.712Z,28.46
2018-08-27T09:14:35.714Z,29.42
2018-08-27T09:15:35.724Z,27.89
2018-08-27T09:16:35.728Z,29.71
2018-08-27T09:17:35.768Z,30.67
2018-08-27T09:18:35.724Z,29.90
2018-08-27T09:19:56.771Z,28.94
2018-08-27T09:20:35.650Z,28.17
2018-08-27T09:21:35.685Z,28.46
2018-08-27T09:22:35.681Z,28.46
2018-08-27T09:23:35.731Z,31.24
2018-08-27T09:24:35.658Z,31.72
2018-08-27T09:25:56.669Z,30.29
2018-08-27T09:26:35.624Z,34.02
2018-08-27T09:27:35.645Z,33.25
2018-08-27T09:28:35.664Z,31.72
2018-08-27T09:29:35.640Z,31.05
2018-08-27T09:30:35.635Z,31.82
2018-08-27T09:31:56.631Z,31.05
2018-08-27T09:32:35.689Z,31.05
2018-08-27T09:33:35.652Z,32.49
2018-08-27T09:34:35.613Z,32.68
2018-08-27T09:35:35.615Z,32.10
2018-08-27T09:36:35.620Z,33.54
2018-08-27T09:37:56.608Z,33.45
2018-08-27T09:38:35.612Z,33.16
2018-08-27T09:39:36.504Z,32.49
2018-08-27T09:40:35.549Z,32.59
2018-08-27T09:41:35.618Z,32.97
2018-08-27T09:42:35.573Z,33.25
2018-08-27T09:43:56.568Z,35.08
2018-08-27T09:44:35.574Z,36.22
2018-08-27T09:45:35.545Z,36.61
2018-08-27T09:46:35.568Z,34.41
2018-08-27T09:47:35.565Z,36.42
2018-08-27T09:48:35.553Z,36.22
2018-08-27T09:49:56.544Z,34.12
2018-08-27T09:50:35.522Z,36.42
2018-08-27T09:51:35.692Z,34.31
2018-08-27T09:52:35.562Z,35.17
2018-08-27T09:53:35.529Z,34.79
2018-08-27T09:54:36.074Z,35.65
2018-08-27T09:55:56.494Z,34.69
2018-08-27T09:56:35.517Z,35.65
2018-08-27T09:57:35.541Z,36.61
2018-08-27T09:58:35.500Z,34.22
2018-08-27T09:59:35.505Z,32.49
2018-08-27T10:00:35.499Z,31.15
2018-08-27T10:01:57.944Z,33.06
2018-08-27T10:02:36.229Z,33.16
2018-08-27T10:03:35.461Z,34.02
2018-08-27T10:04:35.486Z,35.00
2018-08-27T10:05:35.478Z,32.68
2018-08-27T10:06:35.471Z,31.24
2018-08-27T10:07:56.495Z,34.31
2018-08-27T10:08:36.095Z,31.24
2018-08-27T10:09:35.471Z,32.31
2018-08-27T10:10:35.470Z,31.74
2018-08-27T10:11:35.493Z,30.68
2018-08-27T10:12:35.455Z,31.64
2018-08-27T10:13:56.466Z,30.20
2018-08-27T10:14:37.002Z,30.01
2018-08-27T10:15:35.453Z,32.21
2018-08-27T10:16:37.127Z,30.58
2018-08-27T10:17:35.923Z,31.64
2018-08-27T10:18:35.403Z,29.82
2018-08-27T10:19:56.463Z,31.74
2018-08-27T10:20:35.412Z,30.78
2018-08-27T10:21:35.413Z,29.91
2018-08-27T10:22:35.455Z,29.15
2018-08-27T10:23:35.384Z,29.82
2018-08-27T10:24:35.395Z,32.51
2018-08-27T10:25:56.421Z,34.33
2018-08-27T10:26:36.346Z,32.60
2018-08-27T10:27:35.416Z,34.04
2018-08-27T10:28:35.385Z,32.14
2018-08-27T10:29:35.400Z,35.10
2018-08-27T10:30:36.305Z,35.67
2018-08-27T10:31:56.401Z,34.44
2018-08-27T10:32:35.376Z,34.34
2018-08-27T10:33:35.363Z,36.93
2018-08-27T10:34:35.352Z,36.84
2018-08-27T10:35:35.355Z,37.13
2018-08-27T10:36:37.177Z,36.07
2018-08-27T10:37:57.045Z,35.21
2018-08-27T10:38:35.359Z,36.65
2018-08-27T10:39:35.356Z,35.97
2018-08-27T10:40:35.335Z,35.97
2018-08-27T10:41:35.335Z,35.02
2018-08-27T10:42:35.323Z,36.16
2018-08-27T10:43:56.341Z,37.03
2018-08-27T10:44:35.298Z,35.59
2018-08-27T10:45:35.300Z,40.67
2018-08-27T10:46:35.338Z,40.58
2018-08-27T10:47:35.315Z,44.70
2018-08-27T10:48:35.373Z,40.58
2018-08-27T10:49:56.303Z,43.00
2018-08-27T10:50:35.346Z,45.11
2018-08-27T10:51:35.295Z,43.19
2018-08-27T10:52:35.290Z,44.24
2018-08-27T10:53:35.310Z,49.24
2018-08-27T10:54:35.283Z,45.50
2018-08-27T10:55:56.293Z,45.11
2018-08-27T10:56:35.449Z,41.75
2018-08-27T10:57:35.317Z,47.89
2018-08-27T10:58:35.267Z,44.17
2018-08-27T10:59:35.225Z,45.32
2018-08-27T11:00:35.237Z,46.58
2018-08-27T11:01:56.261Z,48.02
2018-08-27T11:02:35.268Z,46.77
2018-08-27T11:03:35.263Z,50.03
2018-08-27T11:04:35.306Z,54.64
2018-08-27T11:05:35.266Z,56.85
2018-08-27T11:06:35.818Z,55.02
2018-08-27T11:07:56.255Z,49.84
2018-08-27T11:08:35.259Z,51.67
2018-08-27T11:09:35.240Z,49.46
2018-08-27T11:10:35.286Z,58.00
2018-08-27T11:11:35.257Z,67.99
2018-08-27T11:12:36.046Z,63.76
2018-08-27T11:13:56.168Z,59.16
2018-08-27T11:14:35.224Z,67.80
2018-08-27T11:15:35.214Z,66.84
2018-08-27T11:16:35.222Z,68.12
2018-08-27T11:17:35.208Z,69.37
2018-08-27T11:18:35.244Z,63.79
2018-08-27T11:19:56.339Z,63.79
2018-08-27T11:20:35.360Z,62.45
2018-08-27T11:21:35.224Z,66.20
2018-08-27T11:22:35.211Z,74.21
2018-08-27T11:23:35.205Z,78.06
2018-08-27T11:24:35.183Z,75.65
2018-08-27T11:25:56.201Z,79.11
2018-08-27T11:26:35.321Z,82.96
2018-08-27T11:27:35.199Z,78.92
2018-08-27T11:28:35.151Z,78.92
2018-08-27T11:29:35.206Z,79.98
2018-08-27T11:30:35.181Z,75.02
2018-08-27T11:31:56.246Z,87.81
2018-08-27T11:32:35.172Z,86.99
2018-08-27T11:33:35.213Z,84.67
2018-08-27T11:34:35.087Z,87.37
2018-08-27T11:35:35.113Z,88.95
2018-08-27T11:36:36.983Z,87.51
2018-08-27T11:37:56.146Z,89.34
2018-08-27T11:38:35.171Z,88.67
2018-08-27T11:39:35.177Z,89.92
2018-08-27T11:40:35.148Z,91.94
2018-08-27T11:41:35.192Z,88.85
2018-08-27T11:42:35.226Z,89.72
2018-08-27T11:43:56.182Z,91.55
2018-08-27T11:44:35.168Z,91.36
2018-08-27T11:45:35.151Z,91.46
2018-08-27T11:46:35.181Z,91.07
2018-08-27T11:47:35.153Z,93.19
2018-08-27T11:48:35.116Z,91.17
2018-08-27T11:49:56.133Z,91.46
2018-08-27T11:50:35.197Z,91.89
2018-08-27T11:51:35.155Z,91.31
2018-08-27T11:52:35.160Z,91.99
2018-08-27T11:53:35.151Z,92.18
2018-08-27T11:54:35.179Z,92.57
2018-08-27T11:55:56.182Z,92.18
2018-08-27T11:56:35.702Z,91.89
2018-08-27T11:57:35.137Z,92.18
2018-08-27T11:58:35.190Z,91.66
2018-08-27T11:59:35.142Z,93.19
2018-08-27T12:00:35.146Z,92.43
2018-08-27T12:01:56.180Z,92.71
2018-08-27T12:02:35.158Z,92.23
2018-08-27T12:03:35.110Z,91.46
2018-08-27T12:04:35.143Z,91.08
2018-08-27T12:05:35.123Z,90.02
2018-08-27T12:06:35.127Z,90.02
2018-08-27T12:07:56.139Z,89.92
2018-08-27T12:08:35.138Z,91.75
2018-08-27T12:09:35.174Z,91.66
2018-08-27T12:10:35.122Z,92.04
2018-08-27T12:11:35.118Z,91.27
2018-08-27T12:12:35.119Z,92.96
2018-08-27T12:13:56.119Z,90.89
2018-08-27T12:14:35.105Z,91.85
2018-08-27T12:15:35.092Z,91.75
2018-08-27T12:16:35.099Z,91.70
2018-08-27T12:17:35.103Z,91.51
2018-08-27T12:18:35.100Z,90.83
2018-08-27T12:19:56.263Z,91.51
2018-08-27T12:20:35.098Z,91.55
2018-08-27T12:21:35.092Z,91.55
2018-08-27T12:22:35.088Z,91.17
2018-08-27T12:23:35.103Z,90.59
2018-08-27T12:24:35.068Z,90.06
2018-08-27T12:25:56.097Z,89.58
2018-08-27T12:26:35.100Z,87.94
2018-08-27T12:27:35.088Z,89.48
2018-08-27T12:28:35.120Z,89.39
2018-08-27T12:29:35.079Z,89.14
2018-08-27T12:30:35.081Z,89.14
2018-08-27T12:31:56.083Z,87.60
2018-08-27T12:32:35.073Z,86.92
2018-08-27T12:33:35.074Z,88.17
2018-08-27T12:34:35.082Z,88.22
2018-08-27T12:35:35.073Z,85.71
2018-08-27T12:36:35.097Z,85.33
2018-08-27T12:37:56.310Z,85.91
2018-08-27T12:38:35.078Z,85.13
2018-08-27T12:39:35.099Z,86.14
2018-08-27T12:40:35.145Z,84.98
2018-08-27T12:41:35.100Z,84.50
2018-08-27T12:42:35.101Z,85.12
2018-08-27T12:43:56.096Z,84.35
2018-08-27T12:44:35.082Z,82.61
2018-08-27T12:45:35.093Z,82.71
2018-08-27T12:46:36.111Z,82.61
2018-08-27T12:47:35.082Z,82.51
2018-08-27T12:48:35.085Z,82.81
2018-08-27T12:49:56.118Z,82.84
2018-08-27T12:50:35.101Z,80.05
2018-08-27T12:51:35.107Z,80.62
2018-08-27T12:52:35.129Z,81.01